sensor_id;sensor_type;location;lat;lon;timestamp;P1;durP1;ratioP1;P2;durP2;ratioP2
29984;SDS011;17387;42.690;23.328;2022-07-23T00:00:15;19.55;;;9.48;;
29984;SDS011;17387;42.690;23.328;2022-07-23T00:02:41;14.68;;;9.50;;
29984;SDS011;17387;42.690;23.328;2022-07-23T00:05:07;12.55;;;9.13;;
29984;SDS011;17387;42.690;23.328;2022-07-23T00:07:33;17.00;;;9.35;;
29984;SDS011;17387;42.690;23.328;2022-07-23T00:09:58;14.55;;;8.52;;
29984;SDS011;17387;42.690;23.328;2022-07-23T00:12:24;15.77;;;8.75;;
29984;SDS011;17387;42.690;23.328;2022-07-23T00:14:50;14.02;;;7.75;;
29984;SDS011;17387;42.690;23.328;2022-07-23T00:17:15;11.02;;;7.53;;
29984;SDS011;17387;42.690;23.328;2022-07-23T00:19:41;16.20;;;8.55;;
29984;SDS011;17387;42.690;23.328;2022-07-23T00:22:06;11.80;;;7.95;;
29984;SDS011;17387;42.690;23.328;2022-07-23T00:24:32;13.70;;;8.50;;
29984;SDS011;17387;42.690;23.328;2022-07-23T00:26:57;15.68;;;8.20;;
29984;SDS011;17387;42.690;23.328;2022-07-23T00:29:22;10.93;;;8.23;;
29984;SDS011;17387;42.690;23.328;2022-07-23T00:31:48;14.35;;;8.55;;
29984;SDS011;17387;42.690;23.328;2022-07-23T00:34:13;12.65;;;8.45;;
29984;SDS011;17387;42.690;23.328;2022-07-23T00:36:39;14.27;;;8.90;;
29984;SDS011;17387;42.690;23.328;2022-07-23T00:39:04;15.18;;;8.65;;
29984;SDS011;17387;42.690;23.328;2022-07-23T00:41:30;16.52;;;9.30;;
29984;SDS011;17387;42.690;23.328;2022-07-23T00:43:55;17.40;;;9.30;;
29984;SDS011;17387;42.690;23.328;2022-07-23T00:46:21;14.23;;;9.70;;
29984;SDS011;17387;42.690;23.328;2022-07-23T00:48:48;16.55;;;9.65;;
29984;SDS011;17387;42.690;23.328;2022-07-23T00:51:17;19.40;;;10.32;;
29984;SDS011;17387;42.690;23.328;2022-07-23T00:53:43;23.13;;;10.68;;
29984;SDS011;17387;42.690;23.328;2022-07-23T00:56:09;14.13;;;9.95;;
29984;SDS011;17387;42.690;23.328;2022-07-23T00:58:35;18.20;;;9.80;;
29984;SDS011;17387;42.690;23.328;2022-07-23T01:01:01;13.80;;;9.30;;
29984;SDS011;17387;42.690;23.328;2022-07-23T01:03:27;12.50;;;8.18;;
29984;SDS011;17387;42.690;23.328;2022-07-23T01:05:53;11.15;;;7.90;;
29984;SDS011;17387;42.690;23.328;2022-07-23T01:08:19;14.18;;;8.52;;
29984;SDS011;17387;42.690;23.328;2022-07-23T01:10:45;14.02;;;8.57;;
29984;SDS011;17387;42.690;23.328;2022-07-23T01:13:13;15.95;;;8.15;;
29984;SDS011;17387;42.690;23.328;2022-07-23T01:15:38;10.48;;;7.88;;
29984;SDS011;17387;42.690;23.328;2022-07-23T01:18:05;13.73;;;8.05;;
29984;SDS011;17387;42.690;23.328;2022-07-23T01:20:31;13.35;;;7.38;;
29984;SDS011;17387;42.690;23.328;2022-07-23T01:22:57;13.25;;;7.85;;
29984;SDS011;17387;42.690;23.328;2022-07-23T01:25:23;11.55;;;7.90;;
29984;SDS011;17387;42.690;23.328;2022-07-23T01:27:49;13.10;;;7.50;;
29984;SDS011;17387;42.690;23.328;2022-07-23T01:30:14;10.77;;;7.57;;
29984;SDS011;17387;42.690;23.328;2022-07-23T01:32:40;11.65;;;7.30;;
29984;SDS011;17387;42.690;23.328;2022-07-23T01:35:06;14.10;;;7.35;;
29984;SDS011;17387;42.690;23.328;2022-07-23T01:37:32;11.82;;;7.70;;
29984;SDS011;17387;42.690;23.328;2022-07-23T01:39:57;17.48;;;7.82;;
29984;SDS011;17387;42.690;23.328;2022-07-23T01:42:23;12.18;;;7.55;;
29984;SDS011;17387;42.690;23.328;2022-07-23T01:44:48;12.70;;;7.90;;
29984;SDS011;17387;42.690;23.328;2022-07-23T01:47:14;13.13;;;8.15;;
29984;SDS011;17387;42.690;23.328;2022-07-23T01:49:40;11.82;;;7.97;;
29984;SDS011;17387;42.690;23.328;2022-07-23T01:52:05;11.05;;;7.43;;
29984;SDS011;17387;42.690;23.328;2022-07-23T01:54:34;11.05;;;7.15;;
29984;SDS011;17387;42.690;23.328;2022-07-23T01:57:00;9.93;;;7.65;;
29984;SDS011;17387;42.690;23.328;2022-07-23T01:59:26;13.05;;;8.70;;
29984;SDS011;17387;42.690;23.328;2022-07-23T02:01:53;13.07;;;7.72;;
29984;SDS011;17387;42.690;23.328;2022-07-23T02:04:19;11.27;;;8.05;;
29984;SDS011;17387;42.690;23.328;2022-07-23T02:06:45;12.05;;;7.68;;
29984;SDS011;17387;42.690;23.328;2022-07-23T02:09:11;14.00;;;7.65;;
29984;SDS011;17387;42.690;23.328;2022-07-23T02:11:37;10.60;;;7.85;;
29984;SDS011;17387;42.690;23.328;2022-07-23T02:14:02;12.80;;;8.10;;
29984;SDS011;17387;42.690;23.328;2022-07-23T02:16:28;13.70;;;8.40;;
29984;SDS011;17387;42.690;23.328;2022-07-23T02:18:54;12.57;;;7.82;;
29984;SDS011;17387;42.690;23.328;2022-07-23T02:21:20;9.60;;;8.00;;
29984;SDS011;17387;42.690;23.328;2022-07-23T02:23:45;16.23;;;8.38;;
29984;SDS011;17387;42.690;23.328;2022-07-23T02:26:10;18.13;;;8.00;;
29984;SDS011;17387;42.690;23.328;2022-07-23T02:28:37;12.38;;;8.18;;
29984;SDS011;17387;42.690;23.328;2022-07-23T02:31:02;12.10;;;8.30;;
29984;SDS011;17387;42.690;23.328;2022-07-23T02:33:28;11.48;;;8.00;;
29984;SDS011;17387;42.690;23.328;2022-07-23T02:35:54;14.93;;;8.00;;
29984;SDS011;17387;42.690;23.328;2022-07-23T02:38:19;10.45;;;7.97;;
29984;SDS011;17387;42.690;23.328;2022-07-23T02:40:45;13.23;;;8.30;;
29984;SDS011;17387;42.690;23.328;2022-07-23T02:43:10;15.32;;;8.50;;
29984;SDS011;17387;42.690;23.328;2022-07-23T02:45:36;11.32;;;8.52;;
29984;SDS011;17387;42.690;23.328;2022-07-23T02:48:01;16.85;;;9.23;;
29984;SDS011;17387;42.690;23.328;2022-07-23T02:50:27;17.30;;;9.40;;
29984;SDS011;17387;42.690;23.328;2022-07-23T02:52:52;14.70;;;9.55;;
29984;SDS011;17387;42.690;23.328;2022-07-23T02:55:17;16.10;;;9.27;;
29984;SDS011;17387;42.690;23.328;2022-07-23T02:57:43;21.42;;;10.45;;
29984;SDS011;17387;42.690;23.328;2022-07-23T03:00:09;18.10;;;10.57;;
29984;SDS011;17387;42.690;23.328;2022-07-23T03:02:35;14.80;;;11.15;;
29984;SDS011;17387;42.690;23.328;2022-07-23T03:05:00;18.88;;;10.75;;
29984;SDS011;17387;42.690;23.328;2022-07-23T03:07:26;21.40;;;10.65;;
29984;SDS011;17387;42.690;23.328;2022-07-23T03:09:51;22.58;;;11.63;;
29984;SDS011;17387;42.690;23.328;2022-07-23T03:12:17;19.60;;;10.88;;
29984;SDS011;17387;42.690;23.328;2022-07-23T03:14:42;17.88;;;10.85;;
29984;SDS011;17387;42.690;23.328;2022-07-23T03:17:08;13.95;;;10.65;;
29984;SDS011;17387;42.690;23.328;2022-07-23T03:19:34;18.92;;;10.50;;
29984;SDS011;17387;42.690;23.328;2022-07-23T03:21:59;21.67;;;10.40;;
29984;SDS011;17387;42.690;23.328;2022-07-23T03:24:25;13.57;;;10.32;;
29984;SDS011;17387;42.690;23.328;2022-07-23T03:27:10;16.38;;;10.18;;
29984;SDS011;17387;42.690;23.328;2022-07-23T03:29:36;14.88;;;9.85;;
29984;SDS011;17387;42.690;23.328;2022-07-23T03:32:02;16.48;;;9.80;;
29984;SDS011;17387;42.690;23.328;2022-07-23T03:34:28;15.90;;;9.65;;
29984;SDS011;17387;42.690;23.328;2022-07-23T03:36:54;15.45;;;9.98;;
29984;SDS011;17387;42.690;23.328;2022-07-23T03:39:19;13.30;;;9.85;;
29984;SDS011;17387;42.690;23.328;2022-07-23T03:41:45;14.85;;;10.13;;
29984;SDS011;17387;42.690;23.328;2022-07-23T03:44:10;21.50;;;9.85;;
29984;SDS011;17387;42.690;23.328;2022-07-23T03:46:36;17.33;;;9.32;;
29984;SDS011;17387;42.690;23.328;2022-07-23T03:49:01;14.82;;;9.77;;
29984;SDS011;17387;42.690;23.328;2022-07-23T03:51:27;19.63;;;10.15;;
29984;SDS011;17387;42.690;23.328;2022-07-23T03:53:52;14.15;;;9.95;;
29984;SDS011;17387;42.690;23.328;2022-07-23T03:56:18;17.67;;;9.70;;
29984;SDS011;17387;42.690;23.328;2022-07-23T03:58:43;21.70;;;9.85;;
29984;SDS011;17387;42.690;23.328;2022-07-23T04:01:08;14.73;;;9.35;;
29984;SDS011;17387;42.690;23.328;2022-07-23T04:03:34;15.82;;;9.75;;
29984;SDS011;17387;42.690;23.328;2022-07-23T04:05:59;14.85;;;10.20;;
29984;SDS011;17387;42.690;23.328;2022-07-23T04:08:25;17.10;;;10.30;;
29984;SDS011;17387;42.690;23.328;2022-07-23T04:10:50;16.30;;;10.20;;
29984;SDS011;17387;42.690;23.328;2022-07-23T04:13:16;14.20;;;9.60;;
29984;SDS011;17387;42.690;23.328;2022-07-23T04:15:42;16.73;;;10.02;;
29984;SDS011;17387;42.690;23.328;2022-07-23T04:18:07;20.00;;;10.63;;
29984;SDS011;17387;42.690;23.328;2022-07-23T04:20:33;11.93;;;9.57;;
29984;SDS011;17387;42.690;23.328;2022-07-23T04:22:58;20.38;;;10.32;;
29984;SDS011;17387;42.690;23.328;2022-07-23T04:25:24;17.67;;;10.27;;
29984;SDS011;17387;42.690;23.328;2022-07-23T04:27:49;17.58;;;10.27;;
29984;SDS011;17387;42.690;23.328;2022-07-23T04:30:15;17.23;;;10.13;;
29984;SDS011;17387;42.690;23.328;2022-07-23T04:32:40;17.80;;;10.07;;
29984;SDS011;17387;42.690;23.328;2022-07-23T04:35:06;15.73;;;10.10;;
29984;SDS011;17387;42.690;23.328;2022-07-23T04:37:31;13.15;;;10.27;;
29984;SDS011;17387;42.690;23.328;2022-07-23T04:39:57;15.23;;;10.23;;
29984;SDS011;17387;42.690;23.328;2022-07-23T04:42:22;14.02;;;10.18;;
29984;SDS011;17387;42.690;23.328;2022-07-23T04:44:47;17.55;;;10.18;;
29984;SDS011;17387;42.690;23.328;2022-07-23T04:47:13;15.65;;;10.43;;
29984;SDS011;17387;42.690;23.328;2022-07-23T04:49:38;12.60;;;9.68;;
29984;SDS011;17387;42.690;23.328;2022-07-23T04:52:04;19.33;;;10.20;;
29984;SDS011;17387;42.690;23.328;2022-07-23T04:54:29;16.10;;;10.02;;
29984;SDS011;17387;42.690;23.328;2022-07-23T04:56:54;13.13;;;10.65;;
29984;SDS011;17387;42.690;23.328;2022-07-23T04:59:20;20.83;;;11.48;;
29984;SDS011;17387;42.690;23.328;2022-07-23T05:01:45;17.17;;;11.10;;
29984;SDS011;17387;42.690;23.328;2022-07-23T05:04:11;13.43;;;9.80;;
29984;SDS011;17387;42.690;23.328;2022-07-23T05:06:36;18.63;;;10.07;;
29984;SDS011;17387;42.690;23.328;2022-07-23T05:09:02;16.05;;;10.50;;
29984;SDS011;17387;42.690;23.328;2022-07-23T05:11:27;15.38;;;10.13;;
29984;SDS011;17387;42.690;23.328;2022-07-23T05:13:53;16.00;;;9.70;;
29984;SDS011;17387;42.690;23.328;2022-07-23T05:16:18;12.80;;;9.90;;
29984;SDS011;17387;42.690;23.328;2022-07-23T05:18:44;14.27;;;9.50;;
29984;SDS011;17387;42.690;23.328;2022-07-23T05:21:09;14.68;;;10.15;;
29984;SDS011;17387;42.690;23.328;2022-07-23T05:23:34;14.80;;;9.25;;
29984;SDS011;17387;42.690;23.328;2022-07-23T05:26:00;15.20;;;9.40;;
29984;SDS011;17387;42.690;23.328;2022-07-23T05:28:25;15.27;;;10.60;;
29984;SDS011;17387;42.690;23.328;2022-07-23T05:30:51;23.60;;;11.30;;
29984;SDS011;17387;42.690;23.328;2022-07-23T05:33:19;16.10;;;11.88;;
29984;SDS011;17387;42.690;23.328;2022-07-23T05:35:45;20.35;;;10.73;;
29984;SDS011;17387;42.690;23.328;2022-07-23T05:38:10;18.55;;;11.55;;
29984;SDS011;17387;42.690;23.328;2022-07-23T05:40:36;18.65;;;10.95;;
29984;SDS011;17387;42.690;23.328;2022-07-23T05:43:01;18.80;;;11.73;;
29984;SDS011;17387;42.690;23.328;2022-07-23T05:45:27;18.10;;;11.32;;
29984;SDS011;17387;42.690;23.328;2022-07-23T05:47:52;16.70;;;11.23;;
29984;SDS011;17387;42.690;23.328;2022-07-23T05:50:17;19.48;;;11.05;;
29984;SDS011;17387;42.690;23.328;2022-07-23T05:52:43;18.90;;;11.48;;
29984;SDS011;17387;42.690;23.328;2022-07-23T05:55:09;15.90;;;11.27;;
29984;SDS011;17387;42.690;23.328;2022-07-23T05:57:35;17.48;;;10.63;;
29984;SDS011;17387;42.690;23.328;2022-07-23T06:00:02;21.90;;;12.35;;
29984;SDS011;17387;42.690;23.328;2022-07-23T06:02:29;28.20;;;18.50;;
29984;SDS011;17387;42.690;23.328;2022-07-23T06:04:54;20.90;;;12.02;;
29984;SDS011;17387;42.690;23.328;2022-07-23T06:07:20;15.05;;;10.93;;
29984;SDS011;17387;42.690;23.328;2022-07-23T06:09:45;18.20;;;11.88;;
29984;SDS011;17387;42.690;23.328;2022-07-23T06:12:12;24.33;;;12.52;;
29984;SDS011;17387;42.690;23.328;2022-07-23T06:14:38;21.92;;;13.25;;
29984;SDS011;17387;42.690;23.328;2022-07-23T06:17:03;16.67;;;10.10;;
29984;SDS011;17387;42.690;23.328;2022-07-23T06:19:28;12.80;;;9.35;;
29984;SDS011;17387;42.690;23.328;2022-07-23T06:21:54;22.50;;;10.85;;
29984;SDS011;17387;42.690;23.328;2022-07-23T06:24:19;15.35;;;9.60;;
29984;SDS011;17387;42.690;23.328;2022-07-23T06:26:45;18.35;;;15.05;;
29984;SDS011;17387;42.690;23.328;2022-07-23T06:29:11;14.27;;;9.30;;
29984;SDS011;17387;42.690;23.328;2022-07-23T06:31:36;18.50;;;10.15;;
29984;SDS011;17387;42.690;23.328;2022-07-23T06:34:02;13.25;;;9.55;;
29984;SDS011;17387;42.690;23.328;2022-07-23T06:36:28;14.15;;;9.35;;
29984;SDS011;17387;42.690;23.328;2022-07-23T06:38:53;19.27;;;10.73;;
29984;SDS011;17387;42.690;23.328;2022-07-23T06:41:19;14.00;;;10.18;;
29984;SDS011;17387;42.690;23.328;2022-07-23T06:43:44;15.55;;;10.32;;
29984;SDS011;17387;42.690;23.328;2022-07-23T06:46:10;17.95;;;9.65;;
29984;SDS011;17387;42.690;23.328;2022-07-23T06:48:35;23.10;;;10.43;;
29984;SDS011;17387;42.690;23.328;2022-07-23T06:51:01;16.20;;;10.30;;
29984;SDS011;17387;42.690;23.328;2022-07-23T06:53:27;17.88;;;10.02;;
29984;SDS011;17387;42.690;23.328;2022-07-23T06:55:53;13.90;;;9.55;;
29984;SDS011;17387;42.690;23.328;2022-07-23T06:58:19;11.65;;;9.10;;
29984;SDS011;17387;42.690;23.328;2022-07-23T07:00:45;13.13;;;8.50;;
29984;SDS011;17387;42.690;23.328;2022-07-23T07:03:11;13.88;;;9.13;;
29984;SDS011;17387;42.690;23.328;2022-07-23T07:05:36;18.15;;;10.23;;
29984;SDS011;17387;42.690;23.328;2022-07-23T07:08:02;17.63;;;9.82;;
29984;SDS011;17387;42.690;23.328;2022-07-23T07:10:27;33.03;;;17.58;;
29984;SDS011;17387;42.690;23.328;2022-07-23T07:12:53;21.30;;;10.90;;
29984;SDS011;17387;42.690;23.328;2022-07-23T07:15:18;20.15;;;12.48;;
29984;SDS011;17387;42.690;23.328;2022-07-23T07:17:43;12.82;;;8.95;;
29984;SDS011;17387;42.690;23.328;2022-07-23T07:20:09;20.17;;;9.27;;
29984;SDS011;17387;42.690;23.328;2022-07-23T07:22:35;14.95;;;11.73;;
29984;SDS011;17387;42.690;23.328;2022-07-23T07:25:01;21.85;;;12.38;;
29984;SDS011;17387;42.690;23.328;2022-07-23T07:27:26;13.68;;;8.38;;
29984;SDS011;17387;42.690;23.328;2022-07-23T07:29:51;14.73;;;8.10;;
29984;SDS011;17387;42.690;23.328;2022-07-23T07:32:17;19.50;;;11.52;;
29984;SDS011;17387;42.690;23.328;2022-07-23T07:34:42;16.92;;;9.95;;
29984;SDS011;17387;42.690;23.328;2022-07-23T07:37:08;18.02;;;8.95;;
29984;SDS011;17387;42.690;23.328;2022-07-23T07:39:33;14.10;;;8.43;;
29984;SDS011;17387;42.690;23.328;2022-07-23T07:41:59;22.00;;;12.57;;
29984;SDS011;17387;42.690;23.328;2022-07-23T07:44:24;15.32;;;9.30;;
29984;SDS011;17387;42.690;23.328;2022-07-23T07:46:50;15.95;;;9.23;;
29984;SDS011;17387;42.690;23.328;2022-07-23T07:49:15;19.27;;;9.18;;
29984;SDS011;17387;42.690;23.328;2022-07-23T07:51:44;11.35;;;8.00;;
29984;SDS011;17387;42.690;23.328;2022-07-23T07:54:10;28.40;;;16.15;;
29984;SDS011;17387;42.690;23.328;2022-07-23T07:56:35;20.75;;;9.02;;
29984;SDS011;17387;42.690;23.328;2022-07-23T07:59:01;23.70;;;9.80;;
29984;SDS011;17387;42.690;23.328;2022-07-23T08:01:26;16.95;;;10.70;;
29984;SDS011;17387;42.690;23.328;2022-07-23T08:03:52;15.02;;;7.97;;
29984;SDS011;17387;42.690;23.328;2022-07-23T08:06:17;15.38;;;8.70;;
29984;SDS011;17387;42.690;23.328;2022-07-23T08:08:43;13.90;;;8.98;;
29984;SDS011;17387;42.690;23.328;2022-07-23T08:11:08;14.30;;;8.98;;
29984;SDS011;17387;42.690;23.328;2022-07-23T08:13:33;18.67;;;12.43;;
29984;SDS011;17387;42.690;23.328;2022-07-23T08:15:59;16.23;;;7.93;;
29984;SDS011;17387;42.690;23.328;2022-07-23T08:18:24;12.15;;;8.40;;
29984;SDS011;17387;42.690;23.328;2022-07-23T08:20:50;17.30;;;8.80;;
29984;SDS011;17387;42.690;23.328;2022-07-23T08:23:15;17.75;;;9.23;;
29984;SDS011;17387;42.690;23.328;2022-07-23T08:25:44;16.67;;;8.85;;
29984;SDS011;17387;42.690;23.328;2022-07-23T08:28:10;19.38;;;8.70;;
29984;SDS011;17387;42.690;23.328;2022-07-23T08:30:38;16.40;;;8.93;;
29984;SDS011;17387;42.690;23.328;2022-07-23T08:33:08;14.88;;;9.13;;
29984;SDS011;17387;42.690;23.328;2022-07-23T08:35:39;16.83;;;9.25;;
29984;SDS011;17387;42.690;23.328;2022-07-23T08:38:08;15.68;;;9.07;;
29984;SDS011;17387;42.690;23.328;2022-07-23T08:40:36;18.15;;;9.07;;
29984;SDS011;17387;42.690;23.328;2022-07-23T08:43:04;23.17;;;9.45;;
29984;SDS011;17387;42.690;23.328;2022-07-23T08:45:31;14.43;;;9.45;;
29984;SDS011;17387;42.690;23.328;2022-07-23T08:48:02;13.30;;;8.27;;
29984;SDS011;17387;42.690;23.328;2022-07-23T08:50:28;16.70;;;8.50;;
29984;SDS011;17387;42.690;23.328;2022-07-23T08:52:53;13.32;;;8.55;;
29984;SDS011;17387;42.690;23.328;2022-07-23T08:55:21;19.85;;;8.88;;
29984;SDS011;17387;42.690;23.328;2022-07-23T08:57:48;15.85;;;8.82;;
29984;SDS011;17387;42.690;23.328;2022-07-23T09:00:15;17.90;;;9.00;;
29984;SDS011;17387;42.690;23.328;2022-07-23T09:02:42;13.77;;;10.35;;
29984;SDS011;17387;42.690;23.328;2022-07-23T09:05:09;16.67;;;8.30;;
29984;SDS011;17387;42.690;23.328;2022-07-23T09:07:36;14.40;;;8.60;;
29984;SDS011;17387;42.690;23.328;2022-07-23T09:10:06;20.95;;;10.82;;
29984;SDS011;17387;42.690;23.328;2022-07-23T09:12:34;16.40;;;10.75;;
29984;SDS011;17387;42.690;23.328;2022-07-23T09:15:07;14.68;;;9.32;;
29984;SDS011;17387;42.690;23.328;2022-07-23T09:17:37;17.95;;;10.43;;
29984;SDS011;17387;42.690;23.328;2022-07-23T09:20:11;16.00;;;9.35;;
29984;SDS011;17387;42.690;23.328;2022-07-23T09:22:40;21.88;;;8.68;;
29984;SDS011;17387;42.690;23.328;2022-07-23T09:25:14;17.58;;;10.25;;
29984;SDS011;17387;42.690;23.328;2022-07-23T09:27:55;18.95;;;8.70;;
29984;SDS011;17387;42.690;23.328;2022-07-23T09:30:23;13.77;;;7.43;;
29984;SDS011;17387;42.690;23.328;2022-07-23T09:33:09;15.13;;;8.65;;
29984;SDS011;17387;42.690;23.328;2022-07-23T09:38:11;18.05;;;8.63;;
29984;SDS011;17387;42.690;23.328;2022-07-23T09:40:37;14.73;;;8.20;;
29984;SDS011;17387;42.690;23.328;2022-07-23T09:43:03;20.58;;;7.85;;
29984;SDS011;17387;42.690;23.328;2022-07-23T09:45:28;13.98;;;7.65;;
29984;SDS011;17387;42.690;23.328;2022-07-23T09:48:09;17.65;;;7.50;;
29984;SDS011;17387;42.690;23.328;2022-07-23T09:50:39;12.02;;;8.40;;
29984;SDS011;17387;42.690;23.328;2022-07-23T09:53:05;13.20;;;8.25;;
29984;SDS011;17387;42.690;23.328;2022-07-23T09:55:31;14.02;;;7.45;;
29984;SDS011;17387;42.690;23.328;2022-07-23T09:58:02;14.57;;;7.15;;
29984;SDS011;17387;42.690;23.328;2022-07-23T10:00:29;14.82;;;7.35;;
29984;SDS011;17387;42.690;23.328;2022-07-23T10:02:56;17.33;;;7.55;;
29984;SDS011;17387;42.690;23.328;2022-07-23T10:05:23;9.55;;;7.28;;
29984;SDS011;17387;42.690;23.328;2022-07-23T10:07:49;11.55;;;6.63;;
29984;SDS011;17387;42.690;23.328;2022-07-23T10:10:16;14.90;;;7.38;;
29984;SDS011;17387;42.690;23.328;2022-07-23T10:12:45;13.57;;;7.25;;
29984;SDS011;17387;42.690;23.328;2022-07-23T10:15:30;13.98;;;6.68;;
29984;SDS011;17387;42.690;23.328;2022-07-23T10:17:56;9.73;;;6.95;;
29984;SDS011;17387;42.690;23.328;2022-07-23T10:20:21;12.85;;;7.30;;
29984;SDS011;17387;42.690;23.328;2022-07-23T10:34:41;11.85;;;6.03;;
29984;SDS011;17387;42.690;23.328;2022-07-23T10:37:21;8.60;;;6.38;;
29984;SDS011;17387;42.690;23.328;2022-07-23T10:42:43;11.70;;;6.85;;
29984;SDS011;17387;42.690;23.328;2022-07-23T10:45:22;12.68;;;6.53;;
29984;SDS011;17387;42.690;23.328;2022-07-23T10:47:48;15.52;;;8.43;;
29984;SDS011;17387;42.690;23.328;2022-07-23T10:57:58;12.35;;;6.40;;
29984;SDS011;17387;42.690;23.328;2022-07-23T11:00:25;15.38;;;6.47;;
29984;SDS011;17387;42.690;23.328;2022-07-23T11:02:54;18.60;;;6.35;;
29984;SDS011;17387;42.690;23.328;2022-07-23T11:05:22;16.55;;;6.78;;
29984;SDS011;17387;42.690;23.328;2022-07-23T11:10:34;13.43;;;6.05;;
29984;SDS011;17387;42.690;23.328;2022-07-23T11:24:08;15.50;;;5.43;;
29984;SDS011;17387;42.690;23.328;2022-07-23T11:31:58;13.70;;;5.80;;
29984;SDS011;17387;42.690;23.328;2022-07-23T11:34:34;17.10;;;6.28;;
29984;SDS011;17387;42.690;23.328;2022-07-23T11:37:07;12.90;;;5.07;;
29984;SDS011;17387;42.690;23.328;2022-07-23T11:39:37;14.77;;;6.10;;
29984;SDS011;17387;42.690;23.328;2022-07-23T11:42:04;15.90;;;6.28;;
29984;SDS011;17387;42.690;23.328;2022-07-23T11:44:32;18.42;;;5.50;;
29984;SDS011;17387;42.690;23.328;2022-07-23T11:47:01;14.13;;;5.25;;
29984;SDS011;17387;42.690;23.328;2022-07-23T11:49:31;16.67;;;5.72;;
29984;SDS011;17387;42.690;23.328;2022-07-23T11:54:37;14.43;;;5.68;;
29984;SDS011;17387;42.690;23.328;2022-07-23T11:57:13;14.85;;;5.40;;
29984;SDS011;17387;42.690;23.328;2022-07-23T11:59:39;18.75;;;6.32;;
29984;SDS011;17387;42.690;23.328;2022-07-23T12:02:05;18.27;;;8.15;;
29984;SDS011;17387;42.690;23.328;2022-07-23T12:09:51;15.38;;;6.55;;
29984;SDS011;17387;42.690;23.328;2022-07-23T12:12:16;20.30;;;5.70;;
29984;SDS011;17387;42.690;23.328;2022-07-23T12:14:49;12.30;;;5.85;;
29984;SDS011;17387;42.690;23.328;2022-07-23T12:17:19;15.60;;;5.70;;
29984;SDS011;17387;42.690;23.328;2022-07-23T12:19:45;19.27;;;6.15;;
29984;SDS011;17387;42.690;23.328;2022-07-23T12:22:12;19.60;;;5.70;;
29984;SDS011;17387;42.690;23.328;2022-07-23T12:27:24;18.27;;;6.32;;
29984;SDS011;17387;42.690;23.328;2022-07-23T12:29:50;19.20;;;5.85;;
29984;SDS011;17387;42.690;23.328;2022-07-23T12:32:26;18.15;;;5.90;;
29984;SDS011;17387;42.690;23.328;2022-07-23T12:35:03;14.55;;;6.30;;
29984;SDS011;17387;42.690;23.328;2022-07-23T12:37:38;16.17;;;5.85;;
29984;SDS011;17387;42.690;23.328;2022-07-23T12:42:52;14.82;;;5.80;;
29984;SDS011;17387;42.690;23.328;2022-07-23T12:45:20;13.65;;;6.00;;
29984;SDS011;17387;42.690;23.328;2022-07-23T12:50:37;17.40;;;6.40;;
29984;SDS011;17387;42.690;23.328;2022-07-23T12:53:12;14.15;;;5.25;;
29984;SDS011;17387;42.690;23.328;2022-07-23T12:55:46;15.13;;;6.05;;
29984;SDS011;17387;42.690;23.328;2022-07-23T12:58:14;19.27;;;6.18;;
29984;SDS011;17387;42.690;23.328;2022-07-23T13:05:56;14.55;;;6.00;;
29984;SDS011;17387;42.690;23.328;2022-07-23T13:08:23;14.20;;;6.45;;
29984;SDS011;17387;42.690;23.328;2022-07-23T13:10:50;17.65;;;7.38;;
29984;SDS011;17387;42.690;23.328;2022-07-23T13:13:17;16.23;;;5.18;;
29984;SDS011;17387;42.690;23.328;2022-07-23T13:15:45;17.25;;;5.95;;
29984;SDS011;17387;42.690;23.328;2022-07-23T13:18:11;15.98;;;6.32;;
29984;SDS011;17387;42.690;23.328;2022-07-23T13:20:36;15.85;;;5.82;;
29984;SDS011;17387;42.690;23.328;2022-07-23T13:23:04;15.70;;;5.68;;
29984;SDS011;17387;42.690;23.328;2022-07-23T13:25:31;18.83;;;6.00;;
29984;SDS011;17387;42.690;23.328;2022-07-23T13:27:56;18.35;;;6.40;;
29984;SDS011;17387;42.690;23.328;2022-07-23T13:30:21;15.82;;;6.00;;
29984;SDS011;17387;42.690;23.328;2022-07-23T13:32:47;16.27;;;5.65;;
29984;SDS011;17387;42.690;23.328;2022-07-23T13:35:13;12.65;;;6.00;;
29984;SDS011;17387;42.690;23.328;2022-07-23T13:37:39;17.40;;;6.13;;
29984;SDS011;17387;42.690;23.328;2022-07-23T13:40:04;19.00;;;5.63;;
29984;SDS011;17387;42.690;23.328;2022-07-23T13:42:30;10.25;;;5.38;;
29984;SDS011;17387;42.690;23.328;2022-07-23T13:44:56;19.65;;;5.80;;
29984;SDS011;17387;42.690;23.328;2022-07-23T13:47:21;12.65;;;5.57;;
29984;SDS011;17387;42.690;23.328;2022-07-23T13:49:46;13.82;;;6.53;;
29984;SDS011;17387;42.690;23.328;2022-07-23T13:52:12;15.93;;;5.70;;
29984;SDS011;17387;42.690;23.328;2022-07-23T13:54:37;16.52;;;6.00;;
29984;SDS011;17387;42.690;23.328;2022-07-23T13:57:03;15.55;;;5.55;;
29984;SDS011;17387;42.690;23.328;2022-07-23T13:59:29;10.27;;;5.95;;
29984;SDS011;17387;42.690;23.328;2022-07-23T14:01:54;17.67;;;6.00;;
29984;SDS011;17387;42.690;23.328;2022-07-23T14:04:20;13.88;;;6.10;;
29984;SDS011;17387;42.690;23.328;2022-07-23T14:06:46;14.93;;;8.82;;
29984;SDS011;17387;42.690;23.328;2022-07-23T14:09:11;16.13;;;6.38;;
29984;SDS011;17387;42.690;23.328;2022-07-23T14:11:37;16.70;;;5.63;;
29984;SDS011;17387;42.690;23.328;2022-07-23T14:14:03;16.60;;;5.75;;
29984;SDS011;17387;42.690;23.328;2022-07-23T14:16:29;17.45;;;5.78;;
29984;SDS011;17387;42.690;23.328;2022-07-23T14:18:54;11.30;;;5.18;;
29984;SDS011;17387;42.690;23.328;2022-07-23T14:21:20;14.85;;;7.45;;
29984;SDS011;17387;42.690;23.328;2022-07-23T14:23:45;13.52;;;5.72;;
29984;SDS011;17387;42.690;23.328;2022-07-23T14:26:11;13.50;;;5.38;;
29984;SDS011;17387;42.690;23.328;2022-07-23T14:28:36;15.35;;;6.50;;
29984;SDS011;17387;42.690;23.328;2022-07-23T14:31:02;13.95;;;5.75;;
29984;SDS011;17387;42.690;23.328;2022-07-23T14:33:27;13.35;;;5.15;;
29984;SDS011;17387;42.690;23.328;2022-07-23T14:35:53;12.57;;;5.47;;
29984;SDS011;17387;42.690;23.328;2022-07-23T14:38:18;16.35;;;5.60;;
29984;SDS011;17387;42.690;23.328;2022-07-23T14:40:44;12.23;;;5.40;;
29984;SDS011;17387;42.690;23.328;2022-07-23T14:43:09;19.08;;;9.20;;
29984;SDS011;17387;42.690;23.328;2022-07-23T14:45:34;13.75;;;6.05;;
29984;SDS011;17387;42.690;23.328;2022-07-23T14:48:00;19.75;;;10.60;;
29984;SDS011;17387;42.690;23.328;2022-07-23T14:50:27;12.25;;;5.20;;
29984;SDS011;17387;42.690;23.328;2022-07-23T14:52:52;13.32;;;5.03;;
29984;SDS011;17387;42.690;23.328;2022-07-23T14:55:18;11.57;;;5.30;;
29984;SDS011;17387;42.690;23.328;2022-07-23T14:57:44;9.32;;;5.28;;
29984;SDS011;17387;42.690;23.328;2022-07-23T15:00:09;16.25;;;5.80;;
29984;SDS011;17387;42.690;23.328;2022-07-23T15:02:35;20.20;;;6.03;;
29984;SDS011;17387;42.690;23.328;2022-07-23T15:05:00;14.23;;;5.40;;
29984;SDS011;17387;42.690;23.328;2022-07-23T15:07:27;16.40;;;7.10;;
29984;SDS011;17387;42.690;23.328;2022-07-23T15:09:54;15.15;;;6.07;;
29984;SDS011;17387;42.690;23.328;2022-07-23T15:12:20;13.50;;;5.95;;
29984;SDS011;17387;42.690;23.328;2022-07-23T15:14:45;15.48;;;6.28;;
29984;SDS011;17387;42.690;23.328;2022-07-23T15:17:10;14.63;;;6.07;;
29984;SDS011;17387;42.690;23.328;2022-07-23T15:19:36;13.00;;;6.47;;